createdAt,value
2023-06-22T00:01:26.238Z,17.49
2023-06-22T00:03:53.828Z,17.41
2023-06-22T00:06:21.702Z,17.41
2023-06-22T00:08:49.211Z,17.36
2023-06-22T00:11:16.575Z,17.37
2023-06-22T00:13:44.004Z,17.34
2023-06-22T00:16:11.452Z,17.42
2023-06-22T00:18:38.756Z,17.41
2023-06-22T00:21:07.677Z,17.38
2023-06-22T00:23:35.830Z,17.47
2023-06-22T00:26:04.061Z,17.43
2023-06-22T00:28:31.864Z,17.37
2023-06-22T00:30:59.531Z,17.36
2023-06-22T00:33:27.026Z,17.31
2023-06-22T00:35:55.038Z,17.29
2023-06-22T00:38:22.649Z,17.25
2023-06-22T00:40:50.103Z,17.28
2023-06-22T00:43:17.539Z,17.31
2023-06-22T00:45:45.070Z,17.30
2023-06-22T00:48:13.922Z,17.32
2023-06-22T00:50:42.094Z,17.28
2023-06-22T00:53:11.045Z,17.38
2023-06-22T00:55:48.418Z,17.31
2023-06-22T00:58:16.063Z,17.42
2023-06-22T01:00:43.630Z,17.43
2023-06-22T01:03:11.604Z,17.45
2023-06-22T01:05:41.448Z,17.43
2023-06-22T01:08:22.864Z,17.45
2023-06-22T01:11:02.458Z,17.50
2023-06-22T01:13:59.087Z,17.45
2023-06-22T01:16:34.070Z,17.51
2023-06-22T01:19:26.312Z,17.47
2023-06-22T01:21:57.353Z,17.46
2023-06-22T01:24:50.003Z,17.37
2023-06-22T01:27:58.139Z,17.40
2023-06-22T01:30:28.014Z,17.35
2023-06-22T01:32:59.911Z,17.34
2023-06-22T01:35:28.115Z,17.37
2023-06-22T01:37:56.721Z,17.38
2023-06-22T01:40:26.361Z,17.45
2023-06-22T01:42:55.180Z,17.51
2023-06-22T01:45:23.156Z,17.50
2023-06-22T01:47:51.056Z,17.51
2023-06-22T01:50:18.475Z,17.53
2023-06-22T01:52:46.191Z,17.55
2023-06-22T01:55:13.354Z,17.59
2023-06-22T01:57:41.337Z,17.59
2023-06-22T02:00:19.923Z,17.71
2023-06-22T02:02:50.239Z,17.83
2023-06-22T02:05:20.216Z,17.93
2023-06-22T02:07:54.262Z,18.02
2023-06-22T02:10:23.482Z,18.10
2023-06-22T02:12:52.690Z,18.17
2023-06-22T02:15:21.146Z,18.09
2023-06-22T02:17:54.128Z,18.11
2023-06-22T02:20:42.860Z,18.04
2023-06-22T02:23:10.519Z,18.07
2023-06-22T02:25:37.877Z,18.16
2023-06-22T02:28:05.814Z,18.29
2023-06-22T02:30:33.416Z,18.19
2023-06-22T02:33:01.555Z,18.21
2023-06-22T02:35:33.269Z,18.27
2023-06-22T02:38:01.509Z,18.23
2023-06-22T02:40:31.119Z,18.36
2023-06-22T02:43:03.470Z,18.26
2023-06-22T02:45:32.826Z,18.21
2023-06-22T02:48:01.204Z,18.21
2023-06-22T02:50:30.136Z,18.30
2023-06-22T02:52:59.594Z,18.40
2023-06-22T02:55:29.319Z,18.55
2023-06-22T02:58:01.317Z,18.38
2023-06-22T03:00:33.035Z,18.36
2023-06-22T03:03:01.578Z,18.32
2023-06-22T03:05:29.410Z,18.24
2023-06-22T03:07:59.702Z,18.22
2023-06-22T03:10:29.304Z,18.22
2023-06-22T03:12:56.910Z,18.19
2023-06-22T03:15:24.573Z,18.22
2023-06-22T03:17:52.792Z,18.16
2023-06-22T03:20:20.704Z,18.26
2023-06-22T03:22:50.074Z,18.31
2023-06-22T03:25:17.379Z,18.36
2023-06-22T03:27:49.528Z,18.38
2023-06-22T03:30:17.300Z,18.39
2023-06-22T03:32:48.291Z,18.30
2023-06-22T03:35:16.105Z,18.37
2023-06-22T03:37:43.558Z,18.44
2023-06-22T03:40:11.436Z,18.46
2023-06-22T03:42:38.876Z,18.52
2023-06-22T03:45:06.952Z,18.63
2023-06-22T03:47:36.427Z,18.74
2023-06-22T03:50:05.729Z,18.85
2023-06-22T03:52:35.612Z,18.87
2023-06-22T03:55:03.226Z,18.83
2023-06-22T03:57:32.983Z,18.91
2023-06-22T04:00:00.963Z,18.90
2023-06-22T04:02:28.888Z,18.89
2023-06-22T04:04:56.314Z,18.86
2023-06-22T04:07:24.968Z,18.96
2023-06-22T04:09:52.361Z,18.95
2023-06-22T04:12:19.621Z,18.96
2023-06-22T04:14:47.062Z,18.76
2023-06-22T04:17:15.664Z,18.74
2023-06-22T04:19:42.970Z,18.90
2023-06-22T04:22:11.447Z,18.98
2023-06-22T04:24:38.868Z,18.95
2023-06-22T04:27:06.731Z,18.91
2023-06-22T04:29:34.035Z,18.89
2023-06-22T04:32:04.411Z,18.97
2023-06-22T04:34:31.851Z,18.93
2023-06-22T04:36:59.237Z,19.04
2023-06-22T04:39:28.346Z,19.07
2023-06-22T04:42:01.155Z,19.03
2023-06-22T04:44:28.633Z,19.06
2023-06-22T04:47:03.484Z,19.04
2023-06-22T04:49:37.375Z,19.01
2023-06-22T04:52:09.879Z,18.98
2023-06-22T04:54:39.617Z,19.02
2023-06-22T04:57:11.787Z,19.10
2023-06-22T04:59:43.345Z,19.24
2023-06-22T05:02:11.350Z,18.99
2023-06-22T05:04:42.269Z,18.90
2023-06-22T05:07:10.537Z,19.02
2023-06-22T05:09:38.584Z,19.16
2023-06-22T05:12:09.763Z,19.12
2023-06-22T05:14:38.897Z,19.07
2023-06-22T05:17:16.479Z,19.24
2023-06-22T05:19:46.674Z,19.25
2023-06-22T05:22:18.646Z,19.32
2023-06-22T05:24:46.606Z,19.43
2023-06-22T05:27:14.868Z,19.44
2023-06-22T05:29:44.221Z,19.51
2023-06-22T05:32:12.287Z,19.50
2023-06-22T05:34:40.066Z,19.61
2023-06-22T05:37:07.919Z,19.69
2023-06-22T05:39:35.297Z,19.69
2023-06-22T05:42:02.685Z,19.74
2023-06-22T05:44:30.182Z,19.84
2023-06-22T05:46:57.962Z,19.80
2023-06-22T05:49:30.872Z,19.83
2023-06-22T05:51:58.629Z,19.85
2023-06-22T05:54:29.677Z,19.85
2023-06-22T05:56:57.562Z,19.89
2023-06-22T05:59:25.136Z,20.01
2023-06-22T06:01:52.425Z,20.16
2023-06-22T06:04:20.612Z,20.26
2023-06-22T06:06:49.430Z,20.33
2023-06-22T06:09:17.597Z,20.31
2023-06-22T06:11:46.632Z,20.14
2023-06-22T06:14:13.949Z,20.22
2023-06-22T06:16:43.168Z,20.20
2023-06-22T06:19:11.391Z,20.23
2023-06-22T06:21:39.378Z,20.21
2023-06-22T06:24:07.675Z,20.33
2023-06-22T06:26:37.620Z,20.49
2023-06-22T06:29:05.379Z,20.37
2023-06-22T06:31:33.494Z,20.34
2023-06-22T06:34:02.041Z,20.25
2023-06-22T06:36:29.626Z,20.33
2023-06-22T06:38:57.317Z,20.39
2023-06-22T06:41:26.759Z,20.39
2023-06-22T06:43:58.848Z,20.41
2023-06-22T06:46:27.277Z,20.42
2023-06-22T06:48:59.885Z,20.52
2023-06-22T06:51:30.268Z,20.42
2023-06-22T06:54:00.609Z,20.57
2023-06-22T06:56:33.494Z,20.70
2023-06-22T06:59:05.104Z,20.76
2023-06-22T07:01:41.922Z,20.71
2023-06-22T07:04:15.451Z,20.73
2023-06-22T07:06:46.223Z,20.72
2023-06-22T07:09:16.383Z,20.80
2023-06-22T07:11:48.748Z,20.90
2023-06-22T07:14:20.601Z,20.84
2023-06-22T07:16:51.692Z,20.70
2023-06-22T07:19:33.431Z,20.74
2023-06-22T07:22:08.440Z,20.76
2023-06-22T07:24:40.698Z,20.85
2023-06-22T07:27:14.344Z,20.79
2023-06-22T07:29:45.766Z,20.85
2023-06-22T07:32:16.579Z,20.90
2023-06-22T07:34:46.886Z,21.08
2023-06-22T07:37:16.282Z,21.17
2023-06-22T07:39:44.696Z,21.01
2023-06-22T07:42:13.690Z,20.94
2023-06-22T07:44:41.621Z,20.85
2023-06-22T07:47:10.603Z,20.59
2023-06-22T07:49:41.507Z,20.73
2023-06-22T07:52:11.233Z,20.81
2023-06-22T07:54:45.820Z,20.73
2023-06-22T07:57:13.451Z,20.69
2023-06-22T07:59:47.197Z,20.74
2023-06-22T08:02:16.296Z,20.89
2023-06-22T08:04:44.236Z,20.91
2023-06-22T08:07:13.962Z,20.90
2023-06-22T08:09:47.545Z,20.98
2023-06-22T08:12:15.425Z,21.01
2023-06-22T08:14:45.776Z,21.00
2023-06-22T08:17:13.441Z,21.06
2023-06-22T08:19:42.062Z,21.19
2023-06-22T08:22:09.777Z,21.30
2023-06-22T08:24:37.542Z,21.42
2023-06-22T08:27:09.981Z,21.39
2023-06-22T08:29:38.678Z,21.43
2023-06-22T08:32:08.143Z,21.44
2023-06-22T08:34:37.448Z,21.35
2023-06-22T08:37:07.852Z,21.36
2023-06-22T08:39:36.518Z,21.47
2023-06-22T08:42:04.330Z,21.49
2023-06-22T08:44:32.115Z,21.42
2023-06-22T08:46:59.846Z,21.43
2023-06-22T08:49:27.397Z,21.40
2023-06-22T08:51:59.152Z,21.48
2023-06-22T08:54:26.753Z,21.52
2023-06-22T08:56:54.532Z,21.52
2023-06-22T08:59:22.078Z,21.57
2023-06-22T09:01:50.300Z,21.63
2023-06-22T09:04:18.055Z,21.74
2023-06-22T09:06:49.040Z,21.60
2023-06-22T09:09:18.479Z,21.69
2023-06-22T09:11:46.268Z,21.83
2023-06-22T09:14:14.402Z,21.84
2023-06-22T09:16:42.125Z,21.93
2023-06-22T09:19:09.797Z,21.94
2023-06-22T09:21:37.742Z,22.03
2023-06-22T09:24:05.648Z,21.84
2023-06-22T09:26:34.697Z,21.81
2023-06-22T09:29:02.388Z,21.85
2023-06-22T09:31:30.135Z,21.92
2023-06-22T09:34:00.575Z,21.96
2023-06-22T09:36:30.531Z,21.98
2023-06-22T09:39:00.210Z,22.03
2023-06-22T09:41:28.194Z,21.97
2023-06-22T09:43:56.917Z,21.89
2023-06-22T09:46:27.067Z,21.97
2023-06-22T09:48:54.453Z,22.05
2023-06-22T09:51:25.389Z,22.08
2023-06-22T09:53:55.427Z,22.07
2023-06-22T09:56:23.449Z,22.22
2023-06-22T09:58:54.652Z,22.12
2023-06-22T10:01:25.188Z,22.02
2023-06-22T10:03:56.022Z,22.07
2023-06-22T10:06:26.338Z,22.11
2023-06-22T10:08:54.378Z,22.20
2023-06-22T10:11:22.873Z,22.26
2023-06-22T10:13:50.342Z,22.34
2023-06-22T10:16:17.683Z,22.29
2023-06-22T10:18:45.070Z,22.27
2023-06-22T10:21:13.305Z,22.25
2023-06-22T10:23:43.052Z,22.06
2023-06-22T10:26:11.597Z,22.02
2023-06-22T10:28:39.287Z,21.98
2023-06-22T10:31:07.865Z,22.10
2023-06-22T10:33:35.253Z,22.14
2023-06-22T10:36:02.553Z,22.17
2023-06-22T10:38:29.855Z,22.17
2023-06-22T10:40:59.341Z,22.17
2023-06-22T10:43:26.905Z,22.10
2023-06-22T10:45:55.618Z,22.04
2023-06-22T10:48:22.988Z,22.05
2023-06-22T10:50:52.208Z,22.05
2023-06-22T10:53:20.583Z,22.14
2023-06-22T10:55:56.346Z,22.11
2023-06-22T10:58:24.210Z,22.18
2023-06-22T11:00:52.735Z,22.18
2023-06-22T11:03:20.334Z,22.29
2023-06-22T11:05:49.261Z,22.34
2023-06-22T11:08:17.860Z,22.31
2023-06-22T11:10:46.573Z,22.30
2023-06-22T11:13:15.566Z,22.36
2023-06-22T11:15:43.142Z,22.47
2023-06-22T11:18:19.371Z,22.53
2023-06-22T11:20:48.935Z,22.56
2023-06-22T11:23:16.960Z,22.65
2023-06-22T11:25:45.461Z,22.55
2023-06-22T11:28:13.117Z,22.54
2023-06-22T11:30:41.380Z,22.62
2023-06-22T11:33:08.865Z,22.60
2023-06-22T11:35:36.311Z,22.59
2023-06-22T11:38:05.307Z,22.57
2023-06-22T11:40:33.298Z,22.60
2023-06-22T11:43:00.770Z,22.69
2023-06-22T11:45:28.829Z,22.68
2023-06-22T11:47:56.200Z,22.74
2023-06-22T11:50:24.159Z,22.77
2023-06-22T11:52:56.881Z,22.71
2023-06-22T11:55:24.245Z,22.63
2023-06-22T11:58:01.446Z,22.61
2023-06-22T12:00:30.669Z,22.71
2023-06-22T12:03:00.795Z,22.70
2023-06-22T12:05:30.506Z,22.79
2023-06-22T12:07:58.162Z,22.89
2023-06-22T12:10:27.576Z,22.87
2023-06-22T12:12:55.323Z,22.93
2023-06-22T12:15:22.742Z,22.92
2023-06-22T12:17:50.120Z,22.96
2023-06-22T12:20:18.315Z,22.92
2023-06-22T12:22:46.184Z,23.01
2023-06-22T12:25:13.532Z,23.04
2023-06-22T12:27:41.512Z,23.07
2023-06-22T12:30:10.074Z,23.08
2023-06-22T12:32:37.566Z,23.08
2023-06-22T12:35:05.739Z,23.06
2023-06-22T12:37:33.936Z,22.99
2023-06-22T12:40:01.700Z,23.00
2023-06-22T12:42:31.479Z,23.06
2023-06-22T12:44:59.092Z,23.05
2023-06-22T12:47:26.490Z,23.08
2023-06-22T12:49:54.063Z,23.12
2023-06-22T12:52:24.519Z,23.08
2023-06-22T12:54:55.680Z,22.99
2023-06-22T12:57:23.949Z,22.95
2023-06-22T12:59:54.589Z,23.07
2023-06-22T13:02:22.281Z,23.13
2023-06-22T13:04:51.396Z,23.15
2023-06-22T13:07:23.413Z,23.13
2023-06-22T13:09:53.603Z,23.21
2023-06-22T13:12:24.381Z,23.24
2023-06-22T13:14:52.194Z,23.28
2023-06-22T13:17:19.678Z,23.32
2023-06-22T13:19:48.077Z,23.39
2023-06-22T13:22:32.112Z,23.36
2023-06-22T13:25:02.720Z,23.34
2023-06-22T13:27:33.833Z,23.26
2023-06-22T13:30:02.479Z,23.29
2023-06-22T13:32:34.915Z,23.27
2023-06-22T13:35:02.512Z,23.22
2023-06-22T13:37:32.601Z,23.22
2023-06-22T13:40:01.045Z,23.22
2023-06-22T13:42:31.429Z,23.27
2023-06-22T13:44:59.001Z,23.24
2023-06-22T13:47:53.286Z,23.27
2023-06-22T13:50:21.011Z,23.23
2023-06-22T13:52:49.721Z,23.17
2023-06-22T13:55:17.417Z,23.18
2023-06-22T13:57:44.894Z,23.20
2023-06-22T14:00:14.080Z,23.18
2023-06-22T14:02:43.093Z,23.29
2023-06-22T14:05:12.254Z,23.37
2023-06-22T14:07:41.541Z,23.40
2023-06-22T14:10:11.795Z,23.31
2023-06-22T14:12:39.367Z,23.38
2023-06-22T14:15:07.468Z,23.36
2023-06-22T14:17:34.892Z,23.41
2023-06-22T14:20:02.387Z,23.46
2023-06-22T14:22:31.639Z,23.40
2023-06-22T14:25:00.280Z,23.42
2023-06-22T14:27:27.910Z,23.40
2023-06-22T14:29:57.211Z,23.39
2023-06-22T14:32:24.923Z,23.31
2023-06-22T14:34:53.414Z,23.31
2023-06-22T14:37:22.097Z,23.28
2023-06-22T14:39:49.301Z,23.29
2023-06-22T14:42:17.605Z,23.30
2023-06-22T14:44:46.688Z,23.26
2023-06-22T14:47:14.077Z,23.30
2023-06-22T14:49:42.739Z,23.26
2023-06-22T14:52:10.134Z,23.31
2023-06-22T14:54:38.576Z,23.23
2023-06-22T14:57:06.249Z,23.19
2023-06-22T14:59:33.752Z,23.16
2023-06-22T15:02:01.162Z,23.14
2023-06-22T15:04:32.981Z,23.08
2023-06-22T15:07:00.435Z,23.06
2023-06-22T15:09:28.410Z,23.05
2023-06-22T15:11:55.804Z,22.99
2023-06-22T15:14:23.180Z,22.95
2023-06-22T15:16:50.573Z,22.86
2023-06-22T15:19:17.781Z,22.77
2023-06-22T15:21:45.318Z,22.71
2023-06-22T15:24:13.333Z,22.74
2023-06-22T15:26:40.992Z,22.69
2023-06-22T15:29:09.078Z,22.68
2023-06-22T15:31:36.446Z,22.67
2023-06-22T15:34:04.861Z,22.68
2023-06-22T15:36:32.266Z,22.67
2023-06-22T15:38:59.574Z,22.66
2023-06-22T15:41:26.972Z,22.62
2023-06-22T15:43:54.259Z,22.62
2023-06-22T15:46:22.652Z,22.66
2023-06-22T15:48:51.641Z,22.67
2023-06-22T15:51:19.925Z,22.64
2023-06-22T15:53:47.322Z,22.65
2023-06-22T15:56:14.695Z,22.63
2023-06-22T15:58:42.055Z,22.65
2023-06-22T16:01:12.096Z,22.70
2023-06-22T16:03:40.328Z,22.65
2023-06-22T16:06:08.024Z,22.71
2023-06-22T16:08:35.627Z,22.73
2023-06-22T16:11:03.142Z,22.72
2023-06-22T16:13:30.313Z,22.71
2023-06-22T16:15:57.562Z,22.65
2023-06-22T16:18:24.935Z,22.57
2023-06-22T16:20:52.180Z,22.54
2023-06-22T16:23:19.867Z,22.52
2023-06-22T16:25:47.259Z,22.49
2023-06-22T16:28:14.617Z,22.46
2023-06-22T16:30:42.903Z,22.45
2023-06-22T16:33:10.315Z,22.37
2023-06-22T16:35:42.129Z,22.37
2023-06-22T16:38:09.514Z,22.32
2023-06-22T16:40:37.073Z,22.30
2023-06-22T16:43:04.322Z,22.29
2023-06-22T16:45:34.048Z,22.22
2023-06-22T16:48:01.485Z,22.19
2023-06-22T16:50:29.039Z,22.17
2023-06-22T16:52:56.509Z,22.12
2023-06-22T16:55:25.926Z,22.12
2023-06-22T16:57:53.954Z,22.03
2023-06-22T17:00:21.607Z,21.95
2023-06-22T17:02:52.783Z,21.90
2023-06-22T17:05:20.625Z,21.86
2023-06-22T17:07:54.848Z,21.78
2023-06-22T17:10:23.853Z,21.67
2023-06-22T17:12:54.162Z,21.64
2023-06-22T17:15:23.417Z,21.58
2023-06-22T17:17:52.123Z,21.48
2023-06-22T17:20:19.593Z,21.38
2023-06-22T17:22:47.171Z,21.28
2023-06-22T17:25:16.028Z,21.01
2023-06-22T17:27:43.531Z,20.90
2023-06-22T17:30:15.484Z,20.77
2023-06-22T17:32:47.564Z,20.65
2023-06-22T17:35:15.597Z,20.58
2023-06-22T17:37:57.349Z,20.55
2023-06-22T17:40:27.765Z,20.39
2023-06-22T17:43:06.494Z,20.30
2023-06-22T17:45:44.143Z,20.26
2023-06-22T17:48:12.129Z,20.16
2023-06-22T17:50:41.571Z,20.06
2023-06-22T17:53:13.928Z,20.06
2023-06-22T17:55:41.442Z,19.87
2023-06-22T17:58:09.294Z,19.84
2023-06-22T18:00:38.287Z,19.70
2023-06-22T18:03:05.919Z,19.62
2023-06-22T18:05:38.217Z,19.59
2023-06-22T18:08:07.576Z,19.56
2023-06-22T18:10:37.457Z,19.52
2023-06-22T18:13:05.975Z,19.40
2023-06-22T18:15:38.426Z,19.38
2023-06-22T18:18:08.101Z,19.40
2023-06-22T18:20:37.246Z,19.36
2023-06-22T18:23:04.827Z,19.34
2023-06-22T18:25:35.189Z,19.20
2023-06-22T18:28:03.295Z,19.18
2023-06-22T18:30:31.478Z,19.18
2023-06-22T18:32:59.643Z,19.06
2023-06-22T18:35:27.555Z,19.02
2023-06-22T18:37:56.517Z,19.09
2023-06-22T18:40:24.069Z,18.93
2023-06-22T18:42:51.689Z,18.89
2023-06-22T18:45:26.881Z,18.94
2023-06-22T18:48:12.647Z,18.86
2023-06-22T18:50:44.968Z,18.79
2023-06-22T18:53:26.883Z,18.80
2023-06-22T18:56:13.047Z,18.78
2023-06-22T18:58:40.685Z,18.67
2023-06-22T19:01:18.018Z,18.62
2023-06-22T19:03:50.405Z,18.59
2023-06-22T19:06:55.540Z,18.52
2023-06-22T19:09:23.033Z,18.61
2023-06-22T19:11:51.198Z,18.64
2023-06-22T19:14:22.884Z,18.59
2023-06-22T19:16:58.975Z,18.34
2023-06-22T19:19:26.463Z,18.43
2023-06-22T19:22:01.932Z,18.55
2023-06-22T19:24:33.459Z,18.63
2023-06-22T19:27:01.385Z,18.62
2023-06-22T19:29:29.308Z,18.42
2023-06-22T19:31:57.739Z,18.41
2023-06-22T19:34:26.530Z,18.31
2023-06-22T19:36:54.063Z,18.24
2023-06-22T19:39:21.471Z,18.32
2023-06-22T19:41:49.273Z,18.31
2023-06-22T19:44:16.782Z,18.21
2023-06-22T19:46:44.338Z,18.17
2023-06-22T19:49:11.751Z,18.07
2023-06-22T19:51:39.475Z,18.07
2023-06-22T19:54:13.176Z,18.09
2023-06-22T19:56:41.141Z,18.19
2023-06-22T19:59:21.684Z,18.23
2023-06-22T20:01:48.949Z,18.23
2023-06-22T20:04:16.364Z,18.08
2023-06-22T20:07:03.808Z,17.94
2023-06-22T20:09:31.294Z,17.97
2023-06-22T20:11:59.470Z,17.89
2023-06-22T20:14:36.288Z,17.80
2023-06-22T20:17:06.283Z,17.76
2023-06-22T20:19:40.296Z,17.69
2023-06-22T20:22:08.456Z,17.74
2023-06-22T20:24:36.064Z,17.74
2023-06-22T20:27:10.880Z,17.76
2023-06-22T20:29:39.559Z,17.88
2023-06-22T20:32:11.981Z,17.80
2023-06-22T20:34:49.629Z,17.75
2023-06-22T20:37:29.630Z,17.82
2023-06-22T20:39:57.432Z,17.85
2023-06-22T20:42:25.356Z,17.69
2023-06-22T20:44:53.601Z,17.56
2023-06-22T20:47:22.218Z,17.52
2023-06-22T20:49:50.754Z,17.45
2023-06-22T20:52:19.589Z,17.43
2023-06-22T20:54:47.460Z,17.43
2023-06-22T20:57:14.964Z,17.41
2023-06-22T20:59:42.213Z,17.36
2023-06-22T21:02:10.485Z,17.36
2023-06-22T21:04:38.485Z,17.37
2023-06-22T21:07:06.410Z,17.42
2023-06-22T21:09:46.196Z,17.46
2023-06-22T21:12:20.412Z,17.50
2023-06-22T21:14:48.265Z,17.55
2023-06-22T21:17:15.896Z,17.48
2023-06-22T21:19:43.227Z,17.52
2023-06-22T21:22:10.706Z,17.52
2023-06-22T21:24:38.106Z,17.49
2023-06-22T21:27:05.781Z,17.51
2023-06-22T21:29:33.192Z,17.58
2023-06-22T21:32:00.597Z,17.62
2023-06-22T21:34:27.959Z,17.69
2023-06-22T21:36:56.519Z,17.72
2023-06-22T21:39:24.275Z,17.79
2023-06-22T21:41:51.687Z,17.80
2023-06-22T21:44:19.046Z,17.75
2023-06-22T21:46:46.546Z,17.67
2023-06-22T21:49:13.897Z,17.59
2023-06-22T21:51:41.252Z,17.57
2023-06-22T21:54:09.025Z,17.55
2023-06-22T21:56:36.424Z,17.60
2023-06-22T21:59:03.722Z,17.66
2023-06-22T22:01:31.118Z,17.68
2023-06-22T22:03:58.610Z,17.72
2023-06-22T22:06:27.925Z,17.71
2023-06-22T22:08:56.045Z,17.63
2023-06-22T22:11:24.291Z,17.48
2023-06-22T22:13:51.978Z,17.49
2023-06-22T22:16:19.937Z,17.46
2023-06-22T22:18:50.191Z,17.54
2023-06-22T22:21:17.631Z,17.53
2023-06-22T22:23:45.015Z,17.58
2023-06-22T22:26:12.379Z,17.57
2023-06-22T22:28:39.824Z,17.56
2023-06-22T22:31:07.305Z,17.57
2023-06-22T22:33:37.122Z,17.52
2023-06-22T22:36:06.778Z,17.46
2023-06-22T22:38:36.350Z,17.53
2023-06-22T22:41:04.483Z,17.52
2023-06-22T22:43:31.881Z,17.50
2023-06-22T22:45:59.256Z,17.48
2023-06-22T22:48:26.672Z,17.48
2023-06-22T22:50:54.251Z,17.51
2023-06-22T22:53:21.648Z,17.49
2023-06-22T22:55:49.119Z,17.47
2023-06-22T22:58:16.532Z,17.43
2023-06-22T23:00:43.836Z,17.43
2023-06-22T23:03:11.213Z,17.43
2023-06-22T23:05:38.697Z,17.41
2023-06-22T23:08:07.825Z,17.34
2023-06-22T23:10:35.127Z,17.31
2023-06-22T23:13:02.464Z,17.33
2023-06-22T23:15:30.274Z,17.33
2023-06-22T23:17:57.812Z,17.32
2023-06-22T23:20:25.341Z,17.30
2023-06-22T23:22:59.966Z,17.27
2023-06-22T23:25:27.821Z,17.12
2023-06-22T23:27:55.306Z,17.03
2023-06-22T23:30:22.667Z,17.09
2023-06-22T23:32:50.483Z,17.06
2023-06-22T23:35:17.862Z,17.10
2023-06-22T23:37:47.362Z,17.08
2023-06-22T23:40:18.289Z,17.00
2023-06-22T23:42:48.469Z,17.06
2023-06-22T23:45:18.645Z,16.98
2023-06-22T23:47:47.514Z,16.98
2023-06-22T23:50:15.672Z,16.96
2023-06-22T23:52:44.094Z,16.93
2023-06-22T23:55:13.049Z,16.93
2023-06-22T23:57:40.353Z,16.91
